Rico, CO (81332)

4:40 AM MDT on July 27, 2016 (GMT -0600)
MesoWest | | Change Station

Elev 9095 ft 37.65 °N, 108.01 °W | Updated 12 hours ago

Partly Cloudy
Partly Cloudy
54 °F
Feels Like 54 °F
N
3
Wind Variable Wind from NNE
Gusts mph

Today
High -- | Low -- °F
--% Chance of Precip.
Yesterday
High -- | Low -- °F
Precip. -- in
Pressure 30.50 in
Visibility 10.0 miles
Clouds Clear
Dew Point 47 °F
Humidity 77%
Rainfall in
Snow Depth Not available.
6:12 AM 8:24 PM
Last Quarter, 44% visible
METAR KTEX 271035Z AUTO 14006KT 10SM CLR 12/04 A3050 RMK AO2 T01190041
Pressure 30.50 in
Visibility 10.0 miles
Clouds Clear
Dew Point 47 °F
Humidity 77%
Rainfall in
Snow Depth Not available.
6:12 AM 8:24 PM
Last Quarter, 44% visible
METAR KTEX 271035Z AUTO 14006KT 10SM CLR 12/04 A3050 RMK AO2 T01190041

10-Day Weather Forecast

Almanac

Astronomy

Jul. 27, 2016 Rise Set
Actual Time
Civil Twilight
Nautical Twilight
Astronomical Twilight
Moon
Length of Visible Light
Length of Day
Tomorrow will be .
, % of the Moon is Illuminated

Today's Extremes

State Highs State Lows

Community

WunderPhotos

Upload Photos

1,927,825 photos uploaded!

WunderBlog® & News

Nearby

Air Quality

  Air Quality AQ Index Pollutant
Not available.

Snow Depth

Station Depth Elevation

Earthquake Activity

City Distance Mag. Time & Date
Minimum magnitude displayed is 2.5.

Coastal Water Temperatures

Place Temperature

Stations

Nearby Weather Stations

Station Location Temp. Windchill Dew Point Humidity Wind Precip. Elev Updated Type
                   

Watches & Warnings

There are currently no watches in effect.